ADDS METAR Data INFO
IDs: Format: Raw Decoded Include TAF

Data at: 1850 UTC 16 Dec 2017

KDYR 161756Z AUTO 24014G17KT 10SM CLR 11/M01 A3019 RMK AO2 SLP241 6//// T01111006 10111 20006 58012 PNO $
KDYR 161656Z AUTO 21008G17KT 10SM CLR 11/M01 A3021 RMK AO2 SLP249 T01061006 PNO $
KDYR 161556Z AUTO 20007KT 10SM CLR 07/M01 A3023 RMK AO2 SLP254 T00721011 PNO $
KDYR 161456Z AUTO 19007KT 10SM CLR 04/M02 A3023 RMK AO2 SLP253 6//// T00391017 51014 PNO $
KDYR 161356Z AUTO 19004KT 10SM CLR 01/M03 A3021 RMK AO2 SLP248 T00111028 FZRANO PNO $
KDYR 161256Z AUTO 18005KT 10SM CLR 01/M03 A3020 RMK AO2 SLP244 T00061033 FZRANO PNO $
KDYR 161156Z AUTO 18004KT 10SM CLR 01/M03 A3018 RMK AO2 SLP238 6//// 7//// T00061033 10033 20006 55004 FZRANO PNO $
KDYR 161056Z AUTO 19004KT 10SM CLR 01/M03 A3017 RMK AO2 SLP235 T00111028 FZRANO PNO $
KDYR 160956Z AUTO 19006KT 10SM CLR 01/M03 A3017 RMK AO2 SLP234 T00111028 FZRANO PNO $
KDYR 160856Z AUTO 20005KT 10SM CLR 02/M03 A3020 RMK AO2 SLP242 6//// T00221028 FZRANO PNO $
KDYR 160756Z AUTO 20004KT 10SM CLR 03/M03 A3019 RMK AO2 SLP241 T00281028 PNO $
KDYR 160656Z AUTO 10SM CLR 03/M03 RMK AO2 SLPNO T00281028 PNO $
KDYR 160556Z AUTO 20006KT 10SM CLR 03/M03 A3019 RMK AO2 SLP239 6//// T00331028 10056 20028 400831011 52003 PNO $
KDYR 160456Z AUTO 19003KT 10SM CLR 03/M03 A3019 RMK AO2 SLP240 T00331028 PNO $
KDYR 160356Z AUTO 19004KT 10SM CLR 03/M03 A3018 RMK AO2 SLP236 T00331028 PNO $
KDYR 160256Z AUTO VRB05KT 10SM CLR 04/M03 A3018 RMK AO2 SLP236 6//// T00391028 50005 PNO $
KDYR 160156Z AUTO 19004KT 10SM CLR 04/M03 A3018 RMK AO2 SLP236 T00391028 PNO $
KDYR 160056Z AUTO 18003KT 10SM CLR 04/M03 A3017 RMK AO2 SLP234 T00441033 PNO $
KDYR 152356Z AUTO 20004KT 10SM CLR 05/M03 A3016 RMK AO2 SLP231 6//// T00501028 10083 20050 51003 PNO $
KDYR 152256Z AUTO 21004KT 10SM CLR 06/M03 A3016 RMK AO2 SLP229 T00611028 PNO $
KDYR 152156Z AUTO 24008KT 10SM CLR 08/M03 A3016 RMK AO2 SLP231 T00781028 PNO $
KDYR 152056Z AUTO 22010KT 10SM CLR 08/M03 A3015 RMK AO2 SLP229 6//// T00831028 56008 PNO $
KDYR 151956Z AUTO 22008KT 10SM CLR 08/M03 A3016 RMK AO2 SLP229 T00781028 PNO $
KDYR 151856Z AUTO 25009KT 10SM CLR 08/M03 A3017 RMK AO2 SLP235 T00781028 PNO $
KDYR 151756Z AUTO 23005KT 10SM CLR 07/M03 A3018 RMK AO2 SLP236 6//// T00671033 10067 21006 58017 TSNO PNO $
KDYR 151656Z AUTO 23006KT 10SM CLR 04/M03 A3021 RMK AO2 SLP249 T00441033 PNO $
KDYR 151556Z AUTO 26004KT 10SM CLR 03/M04 A3024 RMK AO2 SLP259 T00281039 PNO $
KDYR 151456Z AUTO 25003KT 10SM OVC040 01/M03 A3023 RMK AO2 SLP255 6//// T00111033 FZRANO PNO $
KDYR 151356Z AUTO 00000KT 10SM OVC038 00/M04 RMK AO2 SLPNO T00001039 FZRANO PNO $
KDYR 151256Z AUTO 30003KT 10SM OVC038 00/M04 A3020 RMK AO2 SLP246 T00001044 FZRANO PNO $
KDYR 151156Z AUTO 00000KT 10SM BKN036 M01/M03 A3018 RMK AO2 SLP236 6//// 7//// T10061033 11006 21011 53012 FZRANO PNO $
KDYR 151056Z AUTO 27003KT 10SM OVC038 M01/M03 A3016 RMK AO2 SLP229 T10061028 FZRANO PNO $
KDYR 150956Z AUTO 29003KT 10SM OVC040 M01/M03 A3014 RMK AO2 SLP225 T10061028 FZRANO PNO $
KDYR 150856Z AUTO 00000KT 10SM OVC040 M01/M03 A3014 RMK AO2 SLP223 6//// T10061028 56005 FZRANO PNO $
KDYR 150756Z AUTO 00000KT 10SM OVC042 M01/M03 A3014 RMK AO2 SLP223 T10061028 FZRANO PNO $
KDYR 150656Z AUTO 00000KT 10SM OVC044 M01/M03 A3014 RMK AO2 SLP224 T10061028 FZRANO PNO $